2012 Live United Kids 1K RunWalk in the Park

Age Group Results

October 06, 2012


Results by FLeBoeuf@aol.com

1K Kids

Female Open Winners

Place Name City Bib No Age Overall Total Time Pace
1 Elizabeth Jones Port Neches TX 192 11 1 7:54.6 12:45/M
2 Alysia Goo Port Neches TX 73 10 2 8:38.3 13:55/M
3 Cadence McKitrick Orange TX 49 7 3 10:12.2 16:27/M
 

Female 99 and under

Place Name City Bib No Age Overall Total Time Pace
1 Megan Villarreal Houston TX 89 13 4 10:16.8 16:34/M
2 Kaitlyn Wofford Port Arthur TX 19 7 5 10:28.5 16:53/M
3 Kristen Hebert 336 9 6 10:42.8 17:15/M
4 Emily Keller Lumberton TX 339 41 7 10:51.8 17:30/M
5 Alivia De Young Hamshire TX 300 7 8 10:52.4 17:32/M
6 Katie Miller Vidor TX 274 10 9 11:33.5 18:38/M
7 Brianna Brottem Port Arthur TX 167 6 10 12:00.1 19:21/M
8 Giselle Mondello Nederland TX 95 1 11 13:29.5 21:45/M
9 Analisa Villarreal Houston TX 90 11 12 13:30.3 21:46/M
10 Alexis Lemaire Nederland TX 270 11 13 14:34.9 23:30/M
11 Abby Brennan Port Arthur TX 166 2 14 18:57.7 30:34/M
 

Male Open Winners

Place Name City Bib No Age Overall Total Time Pace
1 Corben Johnson Silsbee TX 143 11 1 7:36.3 12:15/M
2 Evan Hernandez Nederland TX 57 8 2 8:51.6 14:16/M
3 Ty McKitrick Orange TX 51 11 3 9:10.3 14:47/M
 

Male 99 and under

Place Name City Bib No Age Overall Total Time Pace
1 Julian Hernandez Nederland TX 56 8 4 9:17.5 14:58/M
2 Jordan McKibbin Beaumont TX 318 11 5 9:37.8 15:31/M
3 Gavin Derutte Nederland TX 272 10 6 9:57.6 16:03/M
4 Jude Mondello Nederland TX 96 5 7 10:17.7 16:35/M
5 Gauge McKitrick Orange TX 50 9 8 11:41.3 18:51/M
6 Sherrod Callihan Port Arthur TX 250 11 9 11:49.8 19:04/M
7 Frederick Gilmore Port Arthur TX 196 9 10 12:30.2 20:10/M
8 Daysian Goo Port Neches TX 74 6 11 12:35.2 20:18/M
9 Frazier Gilmore Port Arthur TX 197 10 12 12:56.8 20:52/M
10 Samuel Mondello Nederland TX 94 3 13 13:29.5 21:45/M
11 Evan Wolford Port Arthur TX 168 6 14 15:03.3 24:16/M
12 Keadon Hall Port Arthur TX 203 6 15 15:15.5 24:36/M
13 Brendan Dupree Port Neches TX 337 4 16 15:20.8 24:44/M
14 Zoic Carr Port Arthur TX 204 4 17 15:30.3 25:00/M
15 Pierce Lee Beaumont TX 92 6 18 21:01.1 33:54/M

*Overall place within gender.